sensor_id;sensor_type;location;lat;lon;timestamp;P1;durP1;ratioP1;P2;durP2;ratioP2
31730;SDS011;18310;55.586;12.286;2022-12-20T00:01:24;26.90;;;15.95;;
31730;SDS011;18310;55.586;12.286;2022-12-20T00:04:31;30.08;;;16.45;;
31730;SDS011;18310;55.586;12.286;2022-12-20T00:07:34;32.15;;;17.88;;
31730;SDS011;18310;55.586;12.286;2022-12-20T00:10:38;29.25;;;16.40;;
31730;SDS011;18310;55.586;12.286;2022-12-20T00:13:44;31.70;;;17.83;;
31730;SDS011;18310;55.586;12.286;2022-12-20T00:19:52;31.30;;;17.73;;
31730;SDS011;18310;55.586;12.286;2022-12-20T00:22:55;34.38;;;17.83;;
31730;SDS011;18310;55.586;12.286;2022-12-20T00:25:59;32.60;;;18.40;;
31730;SDS011;18310;55.586;12.286;2022-12-20T00:29:05;29.55;;;17.38;;
31730;SDS011;18310;55.586;12.286;2022-12-20T00:32:08;27.48;;;17.30;;
31730;SDS011;18310;55.586;12.286;2022-12-20T00:35:13;36.80;;;17.70;;
31730;SDS011;18310;55.586;12.286;2022-12-20T00:38:16;32.25;;;18.27;;
31730;SDS011;18310;55.586;12.286;2022-12-20T00:41:20;27.52;;;16.60;;
31730;SDS011;18310;55.586;12.286;2022-12-20T00:44:26;36.13;;;17.48;;
31730;SDS011;18310;55.586;12.286;2022-12-20T00:47:30;29.35;;;17.35;;
31730;SDS011;18310;55.586;12.286;2022-12-20T00:50:35;24.63;;;16.30;;
31730;SDS011;18310;55.586;12.286;2022-12-20T00:53:39;27.85;;;16.27;;
31730;SDS011;18310;55.586;12.286;2022-12-20T00:59:45;26.15;;;16.92;;
31730;SDS011;18310;55.586;12.286;2022-12-20T01:02:48;24.55;;;15.52;;
31730;SDS011;18310;55.586;12.286;2022-12-20T01:05:53;25.40;;;15.60;;
31730;SDS011;18310;55.586;12.286;2022-12-20T01:08:59;24.75;;;16.33;;
31730;SDS011;18310;55.586;12.286;2022-12-20T01:12:02;25.00;;;14.77;;
31730;SDS011;18310;55.586;12.286;2022-12-20T01:15:06;27.50;;;16.47;;
31730;SDS011;18310;55.586;12.286;2022-12-20T01:18:11;23.90;;;16.00;;
31730;SDS011;18310;55.586;12.286;2022-12-20T01:21:16;23.45;;;14.82;;
31730;SDS011;18310;55.586;12.286;2022-12-20T01:24:21;23.52;;;14.90;;
31730;SDS011;18310;55.586;12.286;2022-12-20T01:27:24;23.45;;;15.30;;
31730;SDS011;18310;55.586;12.286;2022-12-20T01:33:31;24.17;;;15.15;;
31730;SDS011;18310;55.586;12.286;2022-12-20T01:36:36;26.27;;;14.87;;
31730;SDS011;18310;55.586;12.286;2022-12-20T01:39:39;24.20;;;15.25;;
31730;SDS011;18310;55.586;12.286;2022-12-20T01:42:42;22.60;;;15.05;;
31730;SDS011;18310;55.586;12.286;2022-12-20T01:45:45;27.10;;;16.08;;
31730;SDS011;18310;55.586;12.286;2022-12-20T01:48:50;22.37;;;14.17;;
31730;SDS011;18310;55.586;12.286;2022-12-20T01:52:01;21.33;;;14.55;;
31730;SDS011;18310;55.586;12.286;2022-12-20T01:55:11;23.20;;;14.52;;
31730;SDS011;18310;55.586;12.286;2022-12-20T01:58:20;24.15;;;15.00;;
31730;SDS011;18310;55.586;12.286;2022-12-20T02:01:23;19.35;;;12.80;;
31730;SDS011;18310;55.586;12.286;2022-12-20T02:04:27;25.33;;;14.23;;
31730;SDS011;18310;55.586;12.286;2022-12-20T02:07:32;21.50;;;13.40;;
31730;SDS011;18310;55.586;12.286;2022-12-20T02:10:40;21.17;;;13.40;;
31730;SDS011;18310;55.586;12.286;2022-12-20T02:14:03;20.13;;;13.90;;
31730;SDS011;18310;55.586;12.286;2022-12-20T02:17:22;17.65;;;12.52;;
31730;SDS011;18310;55.586;12.286;2022-12-20T02:24:29;26.35;;;13.93;;
31730;SDS011;18310;55.586;12.286;2022-12-20T02:28:00;21.63;;;12.18;;
31730;SDS011;18310;55.586;12.286;2022-12-20T02:31:28;17.67;;;12.07;;
31730;SDS011;18310;55.586;12.286;2022-12-20T02:34:39;19.02;;;11.68;;
31730;SDS011;18310;55.586;12.286;2022-12-20T02:37:48;17.83;;;10.85;;
31730;SDS011;18310;55.586;12.286;2022-12-20T02:40:53;16.48;;;11.40;;
31730;SDS011;18310;55.586;12.286;2022-12-20T02:44:03;17.67;;;10.95;;
31730;SDS011;18310;55.586;12.286;2022-12-20T02:47:32;16.08;;;10.75;;
31730;SDS011;18310;55.586;12.286;2022-12-20T02:50:42;16.95;;;10.82;;
31730;SDS011;18310;55.586;12.286;2022-12-20T02:53:50;13.82;;;9.90;;
31730;SDS011;18310;55.586;12.286;2022-12-20T02:56:55;16.73;;;10.52;;
31730;SDS011;18310;55.586;12.286;2022-12-20T03:00:06;14.63;;;10.40;;
31730;SDS011;18310;55.586;12.286;2022-12-20T03:03:16;15.65;;;9.35;;
31730;SDS011;18310;55.586;12.286;2022-12-20T03:06:25;17.10;;;10.60;;
31730;SDS011;18310;55.586;12.286;2022-12-20T03:12:35;13.35;;;9.48;;
31730;SDS011;18310;55.586;12.286;2022-12-20T03:15:38;14.77;;;9.20;;
31730;SDS011;18310;55.586;12.286;2022-12-20T03:18:43;15.57;;;9.80;;
31730;SDS011;18310;55.586;12.286;2022-12-20T03:21:46;14.23;;;10.07;;
31730;SDS011;18310;55.586;12.286;2022-12-20T03:24:49;16.17;;;10.23;;
31730;SDS011;18310;55.586;12.286;2022-12-20T03:27:53;15.98;;;10.52;;
31730;SDS011;18310;55.586;12.286;2022-12-20T03:30:56;15.10;;;10.20;;
31730;SDS011;18310;55.586;12.286;2022-12-20T03:34:00;16.52;;;10.75;;
31730;SDS011;18310;55.586;12.286;2022-12-20T03:37:04;16.30;;;10.98;;
31730;SDS011;18310;55.586;12.286;2022-12-20T03:40:07;20.75;;;11.52;;
31730;SDS011;18310;55.586;12.286;2022-12-20T03:43:12;15.48;;;10.85;;
31730;SDS011;18310;55.586;12.286;2022-12-20T03:46:15;16.13;;;11.63;;
31730;SDS011;18310;55.586;12.286;2022-12-20T03:49:20;19.02;;;12.38;;
31730;SDS011;18310;55.586;12.286;2022-12-20T03:52:23;17.48;;;12.27;;
31730;SDS011;18310;55.586;12.286;2022-12-20T03:55:27;17.30;;;11.93;;
31730;SDS011;18310;55.586;12.286;2022-12-20T03:58:30;19.42;;;12.38;;
31730;SDS011;18310;55.586;12.286;2022-12-20T04:01:33;21.30;;;13.25;;
31730;SDS011;18310;55.586;12.286;2022-12-20T04:04:40;18.73;;;12.45;;
31730;SDS011;18310;55.586;12.286;2022-12-20T04:07:43;17.65;;;12.45;;
31730;SDS011;18310;55.586;12.286;2022-12-20T04:10:46;20.33;;;12.93;;
31730;SDS011;18310;55.586;12.286;2022-12-20T04:14:03;21.88;;;12.15;;
31730;SDS011;18310;55.586;12.286;2022-12-20T04:17:07;17.88;;;12.32;;
31730;SDS011;18310;55.586;12.286;2022-12-20T04:20:13;19.52;;;13.00;;
31730;SDS011;18310;55.586;12.286;2022-12-20T04:23:21;26.67;;;13.25;;
31730;SDS011;18310;55.586;12.286;2022-12-20T04:26:24;25.43;;;12.93;;
31730;SDS011;18310;55.586;12.286;2022-12-20T04:29:27;27.60;;;12.60;;
31730;SDS011;18310;55.586;12.286;2022-12-20T04:32:31;20.43;;;12.53;;
31730;SDS011;18310;55.586;12.286;2022-12-20T04:35:35;20.92;;;12.48;;
31730;SDS011;18310;55.586;12.286;2022-12-20T04:38:39;23.75;;;13.88;;
31730;SDS011;18310;55.586;12.286;2022-12-20T04:41:42;18.70;;;12.07;;
31730;SDS011;18310;55.586;12.286;2022-12-20T04:44:45;21.63;;;12.48;;
31730;SDS011;18310;55.586;12.286;2022-12-20T04:47:48;20.15;;;11.77;;
31730;SDS011;18310;55.586;12.286;2022-12-20T04:50:53;24.80;;;12.70;;
31730;SDS011;18310;55.586;12.286;2022-12-20T04:53:57;24.20;;;13.10;;
31730;SDS011;18310;55.586;12.286;2022-12-20T04:56:59;18.73;;;12.23;;
31730;SDS011;18310;55.586;12.286;2022-12-20T05:00:02;23.33;;;13.60;;
31730;SDS011;18310;55.586;12.286;2022-12-20T05:03:06;24.23;;;13.30;;
31730;SDS011;18310;55.586;12.286;2022-12-20T05:06:11;23.65;;;13.65;;
31730;SDS011;18310;55.586;12.286;2022-12-20T05:09:15;24.85;;;12.48;;
31730;SDS011;18310;55.586;12.286;2022-12-20T05:12:19;21.77;;;13.40;;
31730;SDS011;18310;55.586;12.286;2022-12-20T05:15:22;25.35;;;13.45;;
31730;SDS011;18310;55.586;12.286;2022-12-20T05:18:25;24.08;;;13.80;;
31730;SDS011;18310;55.586;12.286;2022-12-20T05:21:30;19.60;;;13.07;;
31730;SDS011;18310;55.586;12.286;2022-12-20T05:24:51;21.75;;;13.93;;
31730;SDS011;18310;55.586;12.286;2022-12-20T05:28:12;27.25;;;13.45;;
31730;SDS011;18310;55.586;12.286;2022-12-20T05:31:16;24.90;;;14.52;;
31730;SDS011;18310;55.586;12.286;2022-12-20T05:34:19;28.70;;;14.10;;
31730;SDS011;18310;55.586;12.286;2022-12-20T05:37:24;19.55;;;14.00;;
31730;SDS011;18310;55.586;12.286;2022-12-20T05:40:27;22.92;;;13.07;;
31730;SDS011;18310;55.586;12.286;2022-12-20T05:43:30;22.77;;;13.18;;
31730;SDS011;18310;55.586;12.286;2022-12-20T05:46:34;23.70;;;13.57;;
31730;SDS011;18310;55.586;12.286;2022-12-20T05:49:37;21.15;;;13.40;;
31730;SDS011;18310;55.586;12.286;2022-12-20T05:52:42;25.33;;;13.63;;
31730;SDS011;18310;55.586;12.286;2022-12-20T05:55:46;22.23;;;12.65;;
31730;SDS011;18310;55.586;12.286;2022-12-20T05:58:52;19.85;;;11.95;;
31730;SDS011;18310;55.586;12.286;2022-12-20T06:01:55;21.42;;;12.90;;
31730;SDS011;18310;55.586;12.286;2022-12-20T06:08:04;24.73;;;13.00;;
31730;SDS011;18310;55.586;12.286;2022-12-20T06:11:08;21.33;;;12.60;;
31730;SDS011;18310;55.586;12.286;2022-12-20T06:14:11;25.65;;;12.30;;
31730;SDS011;18310;55.586;12.286;2022-12-20T06:17:14;21.97;;;12.43;;
31730;SDS011;18310;55.586;12.286;2022-12-20T06:20:20;22.75;;;12.40;;
31730;SDS011;18310;55.586;12.286;2022-12-20T06:23:24;20.45;;;12.75;;
31730;SDS011;18310;55.586;12.286;2022-12-20T06:26:27;23.45;;;13.48;;
31730;SDS011;18310;55.586;12.286;2022-12-20T06:29:36;24.98;;;13.63;;
31730;SDS011;18310;55.586;12.286;2022-12-20T06:32:39;24.35;;;12.38;;
31730;SDS011;18310;55.586;12.286;2022-12-20T06:35:42;27.80;;;13.65;;
31730;SDS011;18310;55.586;12.286;2022-12-20T06:38:47;19.40;;;12.15;;
31730;SDS011;18310;55.586;12.286;2022-12-20T06:41:50;19.65;;;12.55;;
31730;SDS011;18310;55.586;12.286;2022-12-20T06:44:52;19.30;;;12.02;;
31730;SDS011;18310;55.586;12.286;2022-12-20T06:47:56;18.48;;;11.43;;
31730;SDS011;18310;55.586;12.286;2022-12-20T06:50:59;22.80;;;13.68;;
31730;SDS011;18310;55.586;12.286;2022-12-20T06:54:04;18.30;;;12.63;;
31730;SDS011;18310;55.586;12.286;2022-12-20T06:57:07;17.55;;;12.10;;
31730;SDS011;18310;55.586;12.286;2022-12-20T07:00:11;21.00;;;11.30;;
31730;SDS011;18310;55.586;12.286;2022-12-20T07:03:15;19.80;;;11.88;;
31730;SDS011;18310;55.586;12.286;2022-12-20T07:06:18;26.13;;;12.53;;
31730;SDS011;18310;55.586;12.286;2022-12-20T07:09:22;19.45;;;11.07;;
31730;SDS011;18310;55.586;12.286;2022-12-20T07:12:26;16.60;;;11.40;;
31730;SDS011;18310;55.586;12.286;2022-12-20T07:15:29;16.83;;;10.88;;
31730;SDS011;18310;55.586;12.286;2022-12-20T07:18:32;18.35;;;11.13;;
31730;SDS011;18310;55.586;12.286;2022-12-20T07:24:41;17.13;;;9.98;;
31730;SDS011;18310;55.586;12.286;2022-12-20T07:27:45;13.68;;;10.02;;
31730;SDS011;18310;55.586;12.286;2022-12-20T07:30:50;13.95;;;10.13;;
31730;SDS011;18310;55.586;12.286;2022-12-20T07:33:53;19.93;;;10.50;;
31730;SDS011;18310;55.586;12.286;2022-12-20T07:36:56;18.67;;;9.95;;
31730;SDS011;18310;55.586;12.286;2022-12-20T07:40:00;15.43;;;9.98;;
31730;SDS011;18310;55.586;12.286;2022-12-20T07:43:04;14.77;;;9.95;;
31730;SDS011;18310;55.586;12.286;2022-12-20T07:46:07;16.48;;;10.57;;
31730;SDS011;18310;55.586;12.286;2022-12-20T07:49:13;14.38;;;10.05;;
31730;SDS011;18310;55.586;12.286;2022-12-20T07:52:18;16.50;;;10.75;;
31730;SDS011;18310;55.586;12.286;2022-12-20T07:55:26;14.45;;;9.45;;
31730;SDS011;18310;55.586;12.286;2022-12-20T07:58:31;18.45;;;10.00;;
31730;SDS011;18310;55.586;12.286;2022-12-20T08:01:37;15.88;;;9.88;;
31730;SDS011;18310;55.586;12.286;2022-12-20T08:04:42;14.07;;;8.90;;
31730;SDS011;18310;55.586;12.286;2022-12-20T08:07:46;13.60;;;10.00;;
31730;SDS011;18310;55.586;12.286;2022-12-20T08:11:00;14.82;;;9.23;;
31730;SDS011;18310;55.586;12.286;2022-12-20T08:14:05;16.63;;;10.13;;
31730;SDS011;18310;55.586;12.286;2022-12-20T08:17:09;14.82;;;10.32;;
31730;SDS011;18310;55.586;12.286;2022-12-20T08:20:12;15.80;;;10.48;;
31730;SDS011;18310;55.586;12.286;2022-12-20T08:23:16;14.85;;;10.48;;
31730;SDS011;18310;55.586;12.286;2022-12-20T08:26:21;15.90;;;10.33;;
31730;SDS011;18310;55.586;12.286;2022-12-20T08:29:24;16.20;;;9.38;;
31730;SDS011;18310;55.586;12.286;2022-12-20T08:35:31;22.90;;;10.73;;
31730;SDS011;18310;55.586;12.286;2022-12-20T08:38:35;17.17;;;9.45;;
31730;SDS011;18310;55.586;12.286;2022-12-20T08:41:40;16.80;;;10.50;;
31730;SDS011;18310;55.586;12.286;2022-12-20T08:44:43;13.80;;;9.00;;
31730;SDS011;18310;55.586;12.286;2022-12-20T08:47:46;14.15;;;8.88;;
31730;SDS011;18310;55.586;12.286;2022-12-20T08:50:53;14.18;;;8.70;;
31730;SDS011;18310;55.586;12.286;2022-12-20T08:53:57;11.32;;;7.93;;
31730;SDS011;18310;55.586;12.286;2022-12-20T08:57:02;10.75;;;7.50;;
31730;SDS011;18310;55.586;12.286;2022-12-20T09:00:05;11.50;;;8.02;;
31730;SDS011;18310;55.586;12.286;2022-12-20T09:03:10;11.63;;;6.80;;
31730;SDS011;18310;55.586;12.286;2022-12-20T09:06:16;12.55;;;6.78;;
31730;SDS011;18310;55.586;12.286;2022-12-20T09:09:21;10.65;;;6.57;;
31730;SDS011;18310;55.586;12.286;2022-12-20T09:12:26;10.02;;;6.75;;
31730;SDS011;18310;55.586;12.286;2022-12-20T09:15:29;8.80;;;6.25;;
31730;SDS011;18310;55.586;12.286;2022-12-20T09:18:32;11.13;;;6.75;;
31730;SDS011;18310;55.586;12.286;2022-12-20T09:21:36;10.45;;;7.22;;
31730;SDS011;18310;55.586;12.286;2022-12-20T09:24:39;10.77;;;7.18;;
31730;SDS011;18310;55.586;12.286;2022-12-20T09:27:44;14.97;;;7.40;;
31730;SDS011;18310;55.586;12.286;2022-12-20T09:30:47;9.13;;;6.85;;
31730;SDS011;18310;55.586;12.286;2022-12-20T09:33:52;11.18;;;6.85;;
31730;SDS011;18310;55.586;12.286;2022-12-20T09:36:56;11.65;;;7.13;;
31730;SDS011;18310;55.586;12.286;2022-12-20T09:39:59;16.33;;;7.57;;
31730;SDS011;18310;55.586;12.286;2022-12-20T09:43:04;13.38;;;7.45;;
31730;SDS011;18310;55.586;12.286;2022-12-20T09:46:11;12.98;;;7.05;;
31730;SDS011;18310;55.586;12.286;2022-12-20T09:49:17;14.13;;;7.80;;
31730;SDS011;18310;55.586;12.286;2022-12-20T09:52:25;11.00;;;6.95;;
31730;SDS011;18310;55.586;12.286;2022-12-20T09:55:43;11.52;;;7.65;;
31730;SDS011;18310;55.586;12.286;2022-12-20T10:02:06;13.00;;;7.13;;
31730;SDS011;18310;55.586;12.286;2022-12-20T10:05:34;12.88;;;7.55;;
31730;SDS011;18310;55.586;12.286;2022-12-20T10:08:49;13.35;;;7.63;;
31730;SDS011;18310;55.586;12.286;2022-12-20T10:12:00;16.38;;;7.28;;
31730;SDS011;18310;55.586;12.286;2022-12-20T10:15:20;10.73;;;7.00;;
31730;SDS011;18310;55.586;12.286;2022-12-20T10:18:34;11.70;;;6.90;;
31730;SDS011;18310;55.586;12.286;2022-12-20T10:21:54;10.20;;;6.43;;
31730;SDS011;18310;55.586;12.286;2022-12-20T10:25:14;10.38;;;6.60;;
31730;SDS011;18310;55.586;12.286;2022-12-20T10:28:22;12.85;;;7.22;;
31730;SDS011;18310;55.586;12.286;2022-12-20T10:31:31;12.15;;;7.55;;
31730;SDS011;18310;55.586;12.286;2022-12-20T10:34:36;13.80;;;6.65;;
31730;SDS011;18310;55.586;12.286;2022-12-20T10:37:55;12.48;;;6.18;;
31730;SDS011;18310;55.586;12.286;2022-12-20T10:41:10;13.43;;;6.78;;
31730;SDS011;18310;55.586;12.286;2022-12-20T10:44:23;11.07;;;6.72;;
31730;SDS011;18310;55.586;12.286;2022-12-20T10:47:36;14.07;;;6.70;;
31730;SDS011;18310;55.586;12.286;2022-12-20T10:50:44;10.85;;;7.25;;
31730;SDS011;18310;55.586;12.286;2022-12-20T10:53:59;10.30;;;6.47;;
31730;SDS011;18310;55.586;12.286;2022-12-20T10:57:12;13.90;;;6.32;;
31730;SDS011;18310;55.586;12.286;2022-12-20T11:00:26;12.00;;;7.45;;
31730;SDS011;18310;55.586;12.286;2022-12-20T11:03:33;10.75;;;6.80;;
31730;SDS011;18310;55.586;12.286;2022-12-20T11:06:54;11.02;;;7.78;;
31730;SDS011;18310;55.586;12.286;2022-12-20T11:13:02;15.93;;;7.40;;
31730;SDS011;18310;55.586;12.286;2022-12-20T11:16:19;14.10;;;7.72;;
31730;SDS011;18310;55.586;12.286;2022-12-20T11:19:37;14.90;;;7.82;;
31730;SDS011;18310;55.586;12.286;2022-12-20T11:22:59;11.55;;;7.82;;
31730;SDS011;18310;55.586;12.286;2022-12-20T11:26:23;14.05;;;8.15;;
31730;SDS011;18310;55.586;12.286;2022-12-20T11:29:47;14.85;;;8.02;;
31730;SDS011;18310;55.586;12.286;2022-12-20T11:33:16;13.32;;;7.22;;
31730;SDS011;18310;55.586;12.286;2022-12-20T11:36:45;10.95;;;6.70;;
31730;SDS011;18310;55.586;12.286;2022-12-20T11:40:19;9.20;;;5.30;;
31730;SDS011;18310;55.586;12.286;2022-12-20T11:43:35;11.45;;;6.60;;
31730;SDS011;18310;55.586;12.286;2022-12-20T11:47:24;8.15;;;5.75;;
31730;SDS011;18310;55.586;12.286;2022-12-20T11:50:55;9.52;;;5.68;;
31730;SDS011;18310;55.586;12.286;2022-12-20T11:54:11;12.98;;;6.60;;
31730;SDS011;18310;55.586;12.286;2022-12-20T11:57:23;8.00;;;6.20;;
31730;SDS011;18310;55.586;12.286;2022-12-20T12:00:55;8.18;;;5.55;;
31730;SDS011;18310;55.586;12.286;2022-12-20T12:04:07;13.95;;;7.07;;
31730;SDS011;18310;55.586;12.286;2022-12-20T12:07:16;11.43;;;6.25;;
31730;SDS011;18310;55.586;12.286;2022-12-20T12:10:28;13.30;;;5.82;;
31730;SDS011;18310;55.586;12.286;2022-12-20T12:13:39;14.50;;;7.07;;
31730;SDS011;18310;55.586;12.286;2022-12-20T12:16:46;10.80;;;6.65;;
31730;SDS011;18310;55.586;12.286;2022-12-20T12:19:55;11.90;;;7.00;;
31730;SDS011;18310;55.586;12.286;2022-12-20T12:23:22;12.02;;;6.85;;
31730;SDS011;18310;55.586;12.286;2022-12-20T12:26:33;13.35;;;7.53;;
31730;SDS011;18310;55.586;12.286;2022-12-20T12:29:39;15.07;;;6.90;;
31730;SDS011;18310;55.586;12.286;2022-12-20T12:32:44;14.57;;;7.85;;
31730;SDS011;18310;55.586;12.286;2022-12-20T12:36:02;13.10;;;7.70;;
31730;SDS011;18310;55.586;12.286;2022-12-20T12:39:43;12.82;;;7.28;;
31730;SDS011;18310;55.586;12.286;2022-12-20T12:43:34;12.30;;;7.40;;
31730;SDS011;18310;55.586;12.286;2022-12-20T12:46:50;15.23;;;8.43;;
31730;SDS011;18310;55.586;12.286;2022-12-20T12:50:02;9.25;;;7.25;;
31730;SDS011;18310;55.586;12.286;2022-12-20T12:53:18;11.20;;;7.65;;
31730;SDS011;18310;55.586;12.286;2022-12-20T12:56:29;15.27;;;7.93;;
31730;SDS011;18310;55.586;12.286;2022-12-20T12:59:48;15.70;;;8.15;;
31730;SDS011;18310;55.586;12.286;2022-12-20T13:02:52;13.40;;;8.20;;
31730;SDS011;18310;55.586;12.286;2022-12-20T13:05:56;17.90;;;8.07;;
31730;SDS011;18310;55.586;12.286;2022-12-20T13:09:09;13.20;;;7.68;;
31730;SDS011;18310;55.586;12.286;2022-12-20T13:19:52;12.18;;;7.40;;
31730;SDS011;18310;55.586;12.286;2022-12-20T13:23:12;15.13;;;9.00;;
31730;SDS011;18310;55.586;12.286;2022-12-20T13:29:51;14.05;;;7.88;;
31730;SDS011;18310;55.586;12.286;2022-12-20T13:36:41;11.48;;;7.28;;
31730;SDS011;18310;55.586;12.286;2022-12-20T13:39:45;12.32;;;7.60;;
31730;SDS011;18310;55.586;12.286;2022-12-20T13:42:49;12.90;;;8.63;;
31730;SDS011;18310;55.586;12.286;2022-12-20T13:46:03;17.23;;;8.88;;
31730;SDS011;18310;55.586;12.286;2022-12-20T13:49:19;15.45;;;8.23;;
31730;SDS011;18310;55.586;12.286;2022-12-20T13:52:28;18.67;;;9.38;;
31730;SDS011;18310;55.586;12.286;2022-12-20T13:55:34;13.80;;;7.57;;
31730;SDS011;18310;55.586;12.286;2022-12-20T13:58:39;12.73;;;8.68;;
31730;SDS011;18310;55.586;12.286;2022-12-20T14:01:47;13.35;;;8.57;;
31730;SDS011;18310;55.586;12.286;2022-12-20T14:04:55;13.57;;;8.52;;
31730;SDS011;18310;55.586;12.286;2022-12-20T14:08:04;13.10;;;8.30;;
31730;SDS011;18310;55.586;12.286;2022-12-20T14:11:11;11.52;;;7.68;;
31730;SDS011;18310;55.586;12.286;2022-12-20T14:14:17;11.93;;;7.07;;
31730;SDS011;18310;55.586;12.286;2022-12-20T14:17:24;16.00;;;9.25;;
31730;SDS011;18310;55.586;12.286;2022-12-20T14:20:30;14.32;;;8.15;;
31730;SDS011;18310;55.586;12.286;2022-12-20T14:23:36;11.98;;;8.18;;
31730;SDS011;18310;55.586;12.286;2022-12-20T14:26:42;12.10;;;7.60;;
31730;SDS011;18310;55.586;12.286;2022-12-20T14:29:50;17.52;;;8.43;;
31730;SDS011;18310;55.586;12.286;2022-12-20T14:32:53;11.05;;;7.88;;
31730;SDS011;18310;55.586;12.286;2022-12-20T14:36:06;13.48;;;8.45;;
31730;SDS011;18310;55.586;12.286;2022-12-20T14:39:22;12.45;;;7.45;;
31730;SDS011;18310;55.586;12.286;2022-12-20T14:42:28;11.82;;;7.80;;
31730;SDS011;18310;55.586;12.286;2022-12-20T14:45:36;13.05;;;7.78;;
31730;SDS011;18310;55.586;12.286;2022-12-20T14:48:39;13.45;;;7.97;;
31730;SDS011;18310;55.586;12.286;2022-12-20T14:51:44;11.77;;;7.38;;
31730;SDS011;18310;55.586;12.286;2022-12-20T14:54:49;13.27;;;7.20;;
31730;SDS011;18310;55.586;12.286;2022-12-20T15:01:25;11.23;;;7.07;;
31730;SDS011;18310;55.586;12.286;2022-12-20T15:04:32;12.18;;;7.47;;
31730;SDS011;18310;55.586;12.286;2022-12-20T15:07:39;13.18;;;7.55;;
31730;SDS011;18310;55.586;12.286;2022-12-20T15:10:46;7.93;;;6.38;;
31730;SDS011;18310;55.586;12.286;2022-12-20T15:14:04;9.93;;;7.03;;
31730;SDS011;18310;55.586;12.286;2022-12-20T15:17:33;19.40;;;8.18;;
31730;SDS011;18310;55.586;12.286;2022-12-20T15:20:35;11.52;;;7.28;;
31730;SDS011;18310;55.586;12.286;2022-12-20T15:23:40;14.98;;;8.13;;
31730;SDS011;18310;55.586;12.286;2022-12-20T15:26:47;12.48;;;7.55;;
31730;SDS011;18310;55.586;12.286;2022-12-20T15:29:50;13.40;;;8.30;;
31730;SDS011;18310;55.586;12.286;2022-12-20T15:32:53;10.18;;;6.57;;
31730;SDS011;18310;55.586;12.286;2022-12-20T15:35:56;11.30;;;7.63;;
31730;SDS011;18310;55.586;12.286;2022-12-20T15:39:00;14.77;;;6.72;;
31730;SDS011;18310;55.586;12.286;2022-12-20T15:42:13;11.53;;;7.47;;
31730;SDS011;18310;55.586;12.286;2022-12-20T15:45:19;10.35;;;6.63;;
31730;SDS011;18310;55.586;12.286;2022-12-20T15:51:26;11.70;;;7.22;;
31730;SDS011;18310;55.586;12.286;2022-12-20T15:54:35;9.38;;;6.22;;
31730;SDS011;18310;55.586;12.286;2022-12-20T15:57:38;11.70;;;7.47;;
31730;SDS011;18310;55.586;12.286;2022-12-20T16:00:41;11.75;;;7.20;;
31730;SDS011;18310;55.586;12.286;2022-12-20T16:03:45;12.57;;;7.30;;
31730;SDS011;18310;55.586;12.286;2022-12-20T16:06:49;12.05;;;7.32;;
31730;SDS011;18310;55.586;12.286;2022-12-20T16:09:55;10.88;;;7.03;;
31730;SDS011;18310;55.586;12.286;2022-12-20T16:16:00;14.35;;;8.25;;
31730;SDS011;18310;55.586;12.286;2022-12-20T16:19:03;14.25;;;7.95;;
31730;SDS011;18310;55.586;12.286;2022-12-20T16:22:08;13.95;;;8.35;;
31730;SDS011;18310;55.586;12.286;2022-12-20T16:25:22;11.38;;;8.30;;
31730;SDS011;18310;55.586;12.286;2022-12-20T16:28:30;14.68;;;8.23;;
31730;SDS011;18310;55.586;12.286;2022-12-20T16:31:33;13.60;;;8.35;;
31730;SDS011;18310;55.586;12.286;2022-12-20T16:34:39;16.42;;;8.65;;
31730;SDS011;18310;55.586;12.286;2022-12-20T16:37:42;18.88;;;8.40;;
31730;SDS011;18310;55.586;12.286;2022-12-20T16:40:46;14.20;;;7.83;;
31730;SDS011;18310;55.586;12.286;2022-12-20T16:43:50;14.15;;;8.73;;
31730;SDS011;18310;55.586;12.286;2022-12-20T16:46:53;16.17;;;8.80;;
31730;SDS011;18310;55.586;12.286;2022-12-20T16:49:56;14.27;;;8.25;;
31730;SDS011;18310;55.586;12.286;2022-12-20T16:52:59;11.02;;;7.60;;
31730;SDS011;18310;55.586;12.286;2022-12-20T16:56:04;11.65;;;8.60;;
31730;SDS011;18310;55.586;12.286;2022-12-20T16:59:08;14.35;;;9.02;;
31730;SDS011;18310;55.586;12.286;2022-12-20T17:02:23;12.85;;;8.30;;
31730;SDS011;18310;55.586;12.286;2022-12-20T17:05:31;13.27;;;8.50;;
31730;SDS011;18310;55.586;12.286;2022-12-20T17:08:39;16.80;;;9.27;;
31730;SDS011;18310;55.586;12.286;2022-12-20T17:12:01;19.58;;;9.18;;
31730;SDS011;18310;55.586;12.286;2022-12-20T17:15:09;13.95;;;8.98;;
31730;SDS011;18310;55.586;12.286;2022-12-20T17:18:22;14.07;;;8.30;;
31730;SDS011;18310;55.586;12.286;2022-12-20T17:21:26;15.27;;;9.48;;
31730;SDS011;18310;55.586;12.286;2022-12-20T17:24:54;14.23;;;8.57;;
31730;SDS011;18310;55.586;12.286;2022-12-20T17:27:59;21.63;;;9.47;;
31730;SDS011;18310;55.586;12.286;2022-12-20T17:31:02;13.20;;;8.93;;
31730;SDS011;18310;55.586;12.286;2022-12-20T17:34:14;13.23;;;8.45;;
31730;SDS011;18310;55.586;12.286;2022-12-20T17:37:21;13.63;;;8.85;;
31730;SDS011;18310;55.586;12.286;2022-12-20T17:40:26;14.98;;;9.27;;
31730;SDS011;18310;55.586;12.286;2022-12-20T17:43:31;16.30;;;9.38;;
31730;SDS011;18310;55.586;12.286;2022-12-20T17:46:36;14.02;;;9.38;;
31730;SDS011;18310;55.586;12.286;2022-12-20T17:49:39;13.80;;;9.68;;
31730;SDS011;18310;55.586;12.286;2022-12-20T17:52:42;15.68;;;9.40;;
31730;SDS011;18310;55.586;12.286;2022-12-20T17:55:46;16.02;;;10.15;;
31730;SDS011;18310;55.586;12.286;2022-12-20T17:58:51;16.73;;;10.23;;
31730;SDS011;18310;55.586;12.286;2022-12-20T18:01:55;15.65;;;10.00;;
31730;SDS011;18310;55.586;12.286;2022-12-20T18:04:58;17.25;;;10.13;;
31730;SDS011;18310;55.586;12.286;2022-12-20T18:08:01;19.17;;;10.25;;
31730;SDS011;18310;55.586;12.286;2022-12-20T18:11:05;17.93;;;11.10;;
31730;SDS011;18310;55.586;12.286;2022-12-20T18:14:09;16.50;;;11.00;;
31730;SDS011;18310;55.586;12.286;2022-12-20T18:17:13;20.27;;;11.55;;
31730;SDS011;18310;55.586;12.286;2022-12-20T18:20:16;15.40;;;10.53;;
31730;SDS011;18310;55.586;12.286;2022-12-20T18:23:20;16.33;;;10.10;;
31730;SDS011;18310;55.586;12.286;2022-12-20T18:26:23;20.52;;;11.70;;
31730;SDS011;18310;55.586;12.286;2022-12-20T18:29:30;17.50;;;10.65;;
31730;SDS011;18310;55.586;12.286;2022-12-20T18:32:34;16.65;;;10.13;;
31730;SDS011;18310;55.586;12.286;2022-12-20T18:35:37;17.33;;;10.80;;
31730;SDS011;18310;55.586;12.286;2022-12-20T18:38:40;16.95;;;10.77;;
31730;SDS011;18310;55.586;12.286;2022-12-20T18:41:46;16.02;;;10.73;;
31730;SDS011;18310;55.586;12.286;2022-12-20T18:44:50;18.93;;;12.47;;
31730;SDS011;18310;55.586;12.286;2022-12-20T18:47:53;16.23;;;11.00;;
31730;SDS011;18310;55.586;12.286;2022-12-20T18:51:01;15.63;;;10.73;;
31730;SDS011;18310;55.586;12.286;2022-12-20T18:54:06;16.27;;;11.00;;
31730;SDS011;18310;55.586;12.286;2022-12-20T18:57:13;19.75;;;11.23;;
31730;SDS011;18310;55.586;12.286;2022-12-20T19:00:18;15.60;;;11.02;;
31730;SDS011;18310;55.586;12.286;2022-12-20T19:03:23;16.30;;;11.27;;
31730;SDS011;18310;55.586;12.286;2022-12-20T19:06:26;18.38;;;11.73;;